createdAt,value
2024-01-26T00:02:08.864Z,13.17
2024-01-26T00:04:36.270Z,14.23
2024-01-26T00:07:03.801Z,12.13
2024-01-26T00:09:31.208Z,13.13
2024-01-26T00:11:58.006Z,16.30
2024-01-26T00:14:24.985Z,9.17
2024-01-26T00:16:51.897Z,15.27
2024-01-26T00:19:19.087Z,10.97
2024-01-26T00:21:46.059Z,15.83
2024-01-26T00:24:13.627Z,12.23
2024-01-26T00:26:40.504Z,8.53
2024-01-26T00:29:08.003Z,10.57
2024-01-26T00:31:34.925Z,12.43
2024-01-26T00:34:01.911Z,13.63
2024-01-26T00:36:28.798Z,7.37
2024-01-26T00:38:55.818Z,11.97
2024-01-26T00:41:22.718Z,9.93
2024-01-26T00:43:49.637Z,8.23
2024-01-26T00:46:16.512Z,12.03
2024-01-26T00:48:43.387Z,15.20
2024-01-26T00:51:10.728Z,7.60
2024-01-26T00:53:37.567Z,11.27
2024-01-26T00:56:04.681Z,16.10
2024-01-26T00:58:31.605Z,13.27
2024-01-26T01:00:58.617Z,6.47
2024-01-26T01:03:25.630Z,9.87
2024-01-26T01:05:52.672Z,11.60
2024-01-26T01:08:21.490Z,8.47
2024-01-26T01:10:48.485Z,15.57
2024-01-26T01:13:16.223Z,10.27
2024-01-26T01:15:43.079Z,14.87
2024-01-26T01:18:10.488Z,8.47
2024-01-26T01:20:37.464Z,8.30
2024-01-26T01:23:04.481Z,9.67
2024-01-26T01:25:31.470Z,11.43
2024-01-26T01:27:58.380Z,10.67
2024-01-26T01:30:25.160Z,9.57
2024-01-26T01:32:52.120Z,15.47
2024-01-26T01:35:19.065Z,9.33
2024-01-26T01:37:46.031Z,9.53
2024-01-26T01:40:12.981Z,9.77
2024-01-26T01:42:40.180Z,14.27
2024-01-26T01:45:12.475Z,13.00
2024-01-26T01:47:39.559Z,13.37
2024-01-26T01:50:07.347Z,12.60
2024-01-26T01:52:35.261Z,10.13
2024-01-26T01:55:03.735Z,18.10
2024-01-26T01:57:32.849Z,10.70
2024-01-26T02:00:01.067Z,13.70
2024-01-26T02:02:30.905Z,12.77
2024-01-26T02:04:57.896Z,7.43
2024-01-26T02:07:26.356Z,8.57
2024-01-26T02:09:53.538Z,12.30
2024-01-26T02:12:20.417Z,9.77
2024-01-26T02:14:47.265Z,9.40
2024-01-26T02:17:14.149Z,11.23
2024-01-26T02:19:41.015Z,8.20
2024-01-26T02:22:07.989Z,14.40
2024-01-26T02:24:34.780Z,13.13
2024-01-26T02:27:11.876Z,9.73
2024-01-26T02:29:40.417Z,10.67
2024-01-26T02:32:07.478Z,7.87
2024-01-26T02:34:34.620Z,9.93
2024-01-26T02:37:01.847Z,12.23
2024-01-26T02:39:30.176Z,6.37
2024-01-26T02:41:57.200Z,10.07
2024-01-26T02:44:24.093Z,9.43
2024-01-26T02:46:50.931Z,12.40
2024-01-26T02:49:18.003Z,7.93
2024-01-26T02:51:44.975Z,8.33
2024-01-26T02:54:11.866Z,9.50
2024-01-26T02:56:38.824Z,9.83
2024-01-26T02:59:05.756Z,9.67
2024-01-26T03:01:32.752Z,13.33
2024-01-26T03:04:00.601Z,12.30
2024-01-26T03:06:27.487Z,8.77
2024-01-26T03:08:55.226Z,11.67
2024-01-26T03:11:22.734Z,18.10
2024-01-26T03:13:49.610Z,10.27
2024-01-26T03:16:16.782Z,12.63
2024-01-26T03:18:43.703Z,10.20
2024-01-26T03:21:10.697Z,12.40
2024-01-26T03:23:38.456Z,8.63
2024-01-26T03:26:05.904Z,12.70
2024-01-26T03:28:32.672Z,11.47
2024-01-26T03:30:59.534Z,7.33
2024-01-26T03:33:26.540Z,10.67
2024-01-26T03:35:53.469Z,7.93
2024-01-26T03:38:20.392Z,11.70
2024-01-26T03:40:47.322Z,7.23
2024-01-26T03:43:14.111Z,10.80
2024-01-26T03:45:41.128Z,13.53
2024-01-26T03:48:08.210Z,14.90
2024-01-26T03:50:35.259Z,9.60
2024-01-26T03:53:02.094Z,15.13
2024-01-26T03:55:28.896Z,10.97
2024-01-26T03:57:55.895Z,10.20
2024-01-26T04:00:22.801Z,17.80
2024-01-26T04:02:49.831Z,13.17
2024-01-26T04:05:16.850Z,10.47
2024-01-26T04:07:43.786Z,11.63
2024-01-26T04:10:10.716Z,7.90
2024-01-26T04:12:37.636Z,5.27
2024-01-26T04:15:04.677Z,12.07
2024-01-26T04:17:31.784Z,8.30
2024-01-26T04:19:58.731Z,12.63
2024-01-26T04:22:25.655Z,8.97
2024-01-26T04:24:52.439Z,9.53
2024-01-26T04:27:19.560Z,11.60
2024-01-26T04:29:46.418Z,11.50
2024-01-26T04:32:13.371Z,9.70
2024-01-26T04:34:40.563Z,14.17
2024-01-26T04:37:09.237Z,12.35
2024-01-26T04:39:36.195Z,12.87
2024-01-26T04:42:03.099Z,11.63
2024-01-26T04:44:30.097Z,12.20
2024-01-26T04:46:58.842Z,18.30
2024-01-26T04:49:25.785Z,7.90
2024-01-26T04:51:52.709Z,6.30
2024-01-26T04:54:19.670Z,10.80
2024-01-26T04:56:46.753Z,12.47
2024-01-26T04:59:13.571Z,10.53
2024-01-26T05:01:40.492Z,11.20
2024-01-26T05:04:07.686Z,7.97
2024-01-26T05:06:34.618Z,14.80
2024-01-26T05:09:01.864Z,13.23
2024-01-26T05:11:28.769Z,12.73
2024-01-26T05:13:55.573Z,14.37
2024-01-26T05:16:22.702Z,8.60
2024-01-26T05:18:49.699Z,12.93
2024-01-26T05:21:16.651Z,9.93
2024-01-26T05:23:43.716Z,9.87
2024-01-26T05:26:10.524Z,15.20
2024-01-26T05:28:37.493Z,21.03
2024-01-26T05:31:05.116Z,22.83
2024-01-26T05:33:32.097Z,16.70
2024-01-26T05:35:58.977Z,20.97
2024-01-26T05:38:25.862Z,16.93
2024-01-26T05:40:52.705Z,13.77
2024-01-26T05:43:19.490Z,13.67
2024-01-26T05:45:46.606Z,11.43
2024-01-26T05:48:13.608Z,10.60
2024-01-26T05:50:40.464Z,10.37
2024-01-26T05:53:08.719Z,14.37
2024-01-26T05:55:35.625Z,13.77
2024-01-26T05:58:02.444Z,20.13
2024-01-26T06:00:29.557Z,22.03
2024-01-26T06:02:56.510Z,21.87
2024-01-26T06:05:23.497Z,10.37
2024-01-26T06:07:50.331Z,11.80
2024-01-26T06:10:17.260Z,16.70
2024-01-26T06:12:45.438Z,13.20
2024-01-26T06:15:12.499Z,15.33
2024-01-26T06:17:40.898Z,10.47
2024-01-26T06:20:08.084Z,14.33
2024-01-26T06:22:35.053Z,20.77
2024-01-26T06:25:01.961Z,18.37
2024-01-26T06:27:28.869Z,13.23
2024-01-26T06:29:55.886Z,11.40
2024-01-26T06:32:22.782Z,16.50
2024-01-26T06:34:49.827Z,26.53
2024-01-26T06:37:16.705Z,19.43
2024-01-26T06:39:43.546Z,18.50
2024-01-26T06:42:10.434Z,30.73
2024-01-26T06:44:37.419Z,55.70
2024-01-26T06:47:04.512Z,23.67
2024-01-26T06:49:31.407Z,19.47
2024-01-26T06:51:58.184Z,9.90
2024-01-26T06:54:25.268Z,11.57
2024-01-26T06:56:52.094Z,19.83
2024-01-26T06:59:19.135Z,28.40
2024-01-26T07:01:45.951Z,24.37
2024-01-26T07:04:12.860Z,31.57
2024-01-26T07:06:39.844Z,53.20
2024-01-26T07:09:07.708Z,129.90
2024-01-26T07:11:36.183Z,98.40
2024-01-26T07:14:03.127Z,95.87
2024-01-26T07:16:29.969Z,75.33
2024-01-26T07:18:56.912Z,95.43
2024-01-26T07:21:23.953Z,23.67
2024-01-26T07:23:51.064Z,30.87
2024-01-26T07:26:21.544Z,24.80
2024-01-26T07:28:48.828Z,19.67
2024-01-26T07:31:15.681Z,16.70
2024-01-26T07:33:42.796Z,14.17
2024-01-26T07:36:09.829Z,22.03
2024-01-26T07:38:36.690Z,21.40
2024-01-26T07:41:03.617Z,20.17
2024-01-26T07:43:30.628Z,17.70
2024-01-26T07:45:57.482Z,13.90
2024-01-26T07:48:24.981Z,17.43
2024-01-26T07:50:52.064Z,18.03
2024-01-26T07:53:18.912Z,24.13
2024-01-26T07:55:45.981Z,20.77
2024-01-26T07:58:12.888Z,19.30
2024-01-26T08:00:39.810Z,21.60
2024-01-26T08:03:07.247Z,20.57
2024-01-26T08:05:34.553Z,17.50
2024-01-26T08:08:01.458Z,20.40
2024-01-26T08:10:28.426Z,20.37
2024-01-26T08:12:55.605Z,22.80
2024-01-26T08:15:22.693Z,23.03
2024-01-26T08:17:50.032Z,16.87
2024-01-26T08:20:17.238Z,15.80
2024-01-26T08:22:45.286Z,22.70
2024-01-26T08:25:13.103Z,26.53
2024-01-26T08:27:40.176Z,22.33
2024-01-26T08:30:07.616Z,21.43
2024-01-26T08:32:35.564Z,21.70
2024-01-26T08:35:02.931Z,25.90
2024-01-26T08:37:29.974Z,27.07
2024-01-26T08:39:57.511Z,26.00
2024-01-26T08:42:24.545Z,25.37
2024-01-26T08:44:51.483Z,15.60
2024-01-26T08:47:18.354Z,22.23
2024-01-26T08:49:45.362Z,14.33
2024-01-26T08:52:12.169Z,13.30
2024-01-26T08:54:39.280Z,12.03
2024-01-26T08:57:06.764Z,15.17
2024-01-26T08:59:33.724Z,24.80
2024-01-26T09:02:00.746Z,14.47
2024-01-26T09:04:28.098Z,15.87
2024-01-26T09:07:00.407Z,16.20
2024-01-26T09:09:35.147Z,17.80
2024-01-26T09:12:02.155Z,25.97
2024-01-26T09:14:29.553Z,14.60
2024-01-26T09:16:56.498Z,17.63
2024-01-26T09:19:23.582Z,21.17
2024-01-26T09:21:52.511Z,18.60
2024-01-26T09:24:19.616Z,15.73
2024-01-26T09:26:46.914Z,15.57
2024-01-26T09:29:14.136Z,16.83
2024-01-26T09:31:41.100Z,19.03
2024-01-26T09:34:08.305Z,15.03
2024-01-26T09:36:35.289Z,15.60
2024-01-26T09:39:02.187Z,17.70
2024-01-26T09:41:29.124Z,15.67
2024-01-26T09:43:56.299Z,11.73
2024-01-26T09:46:23.170Z,16.17
2024-01-26T09:48:53.730Z,17.73
2024-01-26T09:51:21.043Z,14.07
2024-01-26T09:53:48.160Z,14.03
2024-01-26T09:56:15.031Z,11.00
2024-01-26T09:58:41.954Z,17.53
2024-01-26T10:01:08.862Z,12.67
2024-01-26T10:03:36.666Z,17.20
2024-01-26T10:06:04.330Z,13.50
2024-01-26T10:08:41.103Z,9.77
2024-01-26T10:11:08.290Z,8.63
2024-01-26T10:13:35.331Z,12.70
2024-01-26T10:16:09.270Z,11.93
2024-01-26T10:18:43.917Z,12.07
2024-01-26T10:21:15.190Z,17.83
2024-01-26T10:23:42.725Z,21.57
2024-01-26T10:26:12.998Z,9.30
2024-01-26T10:28:40.140Z,9.37
2024-01-26T10:31:07.539Z,9.43
2024-01-26T10:33:35.192Z,8.70
2024-01-26T10:36:03.036Z,10.47
2024-01-26T10:38:30.571Z,10.97
2024-01-26T10:41:01.705Z,10.47
2024-01-26T10:43:29.232Z,7.17
2024-01-26T10:45:57.029Z,9.67
2024-01-26T10:48:25.453Z,8.57
2024-01-26T10:50:52.608Z,12.67
2024-01-26T10:53:20.350Z,10.17
2024-01-26T10:55:48.998Z,11.60
2024-01-26T10:58:16.055Z,9.53
2024-01-26T11:00:42.970Z,14.73
2024-01-26T11:03:10.193Z,14.50
2024-01-26T11:05:37.341Z,16.00
2024-01-26T11:08:09.099Z,10.10
2024-01-26T11:10:36.378Z,10.17
2024-01-26T11:13:04.050Z,16.83
2024-01-26T11:15:31.519Z,17.10
2024-01-26T11:17:59.068Z,9.93
2024-01-26T11:20:27.929Z,11.00
2024-01-26T11:23:01.685Z,14.67
2024-01-26T11:25:33.962Z,14.13
2024-01-26T11:28:01.405Z,9.87
2024-01-26T11:30:28.768Z,15.03
2024-01-26T11:32:55.939Z,17.60
2024-01-26T11:35:23.333Z,13.37
2024-01-26T11:37:54.814Z,14.97
2024-01-26T11:40:22.150Z,10.53
2024-01-26T11:42:51.689Z,7.70
2024-01-26T11:45:26.553Z,9.50
2024-01-26T11:47:54.396Z,13.87
2024-01-26T11:50:21.346Z,9.43
2024-01-26T11:52:49.507Z,11.37
2024-01-26T11:55:16.645Z,17.87
2024-01-26T11:57:43.839Z,10.80
2024-01-26T12:00:12.168Z,10.40
2024-01-26T12:02:39.431Z,12.50
2024-01-26T12:05:06.592Z,13.27
2024-01-26T12:07:33.819Z,13.20
2024-01-26T12:10:01.410Z,12.20
2024-01-26T12:12:28.904Z,8.67
2024-01-26T12:14:56.009Z,16.93
2024-01-26T12:17:22.937Z,10.67
2024-01-26T12:19:51.065Z,9.63
2024-01-26T12:22:18.674Z,7.83
2024-01-26T12:24:45.510Z,13.97
2024-01-26T12:27:12.635Z,11.30
2024-01-26T12:29:39.627Z,11.90
2024-01-26T12:32:07.264Z,13.43
2024-01-26T12:34:37.389Z,11.73
2024-01-26T12:37:10.135Z,9.77
2024-01-26T12:39:37.096Z,12.50
2024-01-26T12:42:03.991Z,7.30
2024-01-26T12:44:31.612Z,8.07
2024-01-26T12:46:58.905Z,9.07
2024-01-26T12:49:26.306Z,14.00
2024-01-26T12:51:57.412Z,13.63
2024-01-26T12:54:25.126Z,11.57
2024-01-26T12:56:52.108Z,11.17
2024-01-26T12:59:18.956Z,10.27
2024-01-26T13:01:45.847Z,12.07
2024-01-26T13:04:12.745Z,19.47
2024-01-26T13:06:39.735Z,12.23
2024-01-26T13:09:08.014Z,9.60
2024-01-26T13:11:35.939Z,12.37
2024-01-26T13:14:04.267Z,12.43
2024-01-26T13:16:31.070Z,13.37
2024-01-26T13:18:58.115Z,10.20
2024-01-26T13:21:25.430Z,13.90
2024-01-26T13:23:53.051Z,17.37
2024-01-26T13:26:20.464Z,10.83
2024-01-26T13:28:47.364Z,12.80
2024-01-26T13:31:14.287Z,9.20
2024-01-26T13:33:44.139Z,11.73
2024-01-26T13:36:11.216Z,11.63
2024-01-26T13:38:38.303Z,11.43
2024-01-26T13:41:05.387Z,11.77
2024-01-26T13:43:33.991Z,14.43
2024-01-26T13:46:02.186Z,12.13
2024-01-26T13:48:31.272Z,9.90
2024-01-26T13:51:01.089Z,19.50
2024-01-26T13:53:28.525Z,9.83
2024-01-26T13:55:55.520Z,8.00
2024-01-26T13:58:22.458Z,13.87
2024-01-26T14:00:49.697Z,15.53
2024-01-26T14:03:16.733Z,9.63
2024-01-26T14:05:43.910Z,13.43
2024-01-26T14:08:10.995Z,15.63
2024-01-26T14:10:38.119Z,13.60
2024-01-26T14:13:06.146Z,10.97
2024-01-26T14:15:33.047Z,12.20
2024-01-26T14:18:00.011Z,18.40
2024-01-26T14:20:26.931Z,12.90
2024-01-26T14:22:53.718Z,14.10
2024-01-26T14:25:22.412Z,14.17
2024-01-26T14:27:51.329Z,13.97
2024-01-26T14:30:18.959Z,11.77
2024-01-26T14:32:45.951Z,12.87
2024-01-26T14:35:13.927Z,12.73
2024-01-26T14:37:42.066Z,12.63
2024-01-26T14:40:18.868Z,12.87
2024-01-26T14:42:46.810Z,16.27
2024-01-26T14:45:14.114Z,15.13
2024-01-26T14:47:41.696Z,11.20
2024-01-26T14:50:11.025Z,13.17
2024-01-26T14:52:39.933Z,11.47
2024-01-26T14:55:10.563Z,15.67
2024-01-26T14:57:39.640Z,10.70
2024-01-26T15:00:10.026Z,11.00
2024-01-26T15:02:37.606Z,6.53
2024-01-26T15:05:04.855Z,12.30
2024-01-26T15:07:36.178Z,13.33
2024-01-26T15:10:05.650Z,12.80
2024-01-26T15:12:32.600Z,15.63
2024-01-26T15:14:59.525Z,18.13
2024-01-26T15:17:26.624Z,9.83
2024-01-26T15:19:53.980Z,7.13
2024-01-26T15:22:21.002Z,10.40
2024-01-26T15:24:48.011Z,12.87
2024-01-26T15:27:14.943Z,13.87
2024-01-26T15:29:41.893Z,11.00
2024-01-26T15:32:09.468Z,16.63
2024-01-26T15:34:37.043Z,12.20
2024-01-26T15:37:05.011Z,13.23
2024-01-26T15:39:31.932Z,18.17
2024-01-26T15:41:58.783Z,11.07
2024-01-26T15:44:25.713Z,17.57
2024-01-26T15:46:52.634Z,10.60
2024-01-26T15:49:20.827Z,12.27
2024-01-26T15:51:47.708Z,13.37
2024-01-26T15:54:14.685Z,15.60
2024-01-26T15:56:41.500Z,12.90
2024-01-26T15:59:08.445Z,18.37
2024-01-26T16:01:35.348Z,11.30
2024-01-26T16:04:02.283Z,16.60
2024-01-26T16:06:29.285Z,10.60
2024-01-26T16:08:56.176Z,11.60
2024-01-26T16:11:23.262Z,20.80
2024-01-26T16:13:50.160Z,12.33
2024-01-26T16:16:17.543Z,11.03
2024-01-26T16:18:46.057Z,13.67
2024-01-26T16:21:13.442Z,18.00
2024-01-26T16:23:40.338Z,14.50
2024-01-26T16:26:07.774Z,22.43
2024-01-26T16:28:37.519Z,17.60
2024-01-26T16:31:04.443Z,16.83
2024-01-26T16:33:31.337Z,14.90
2024-01-26T16:35:58.263Z,18.03
2024-01-26T16:38:25.129Z,18.70
2024-01-26T16:40:52.236Z,19.17
2024-01-26T16:43:19.187Z,13.00
2024-01-26T16:45:46.295Z,18.03
2024-01-26T16:48:13.698Z,20.10
2024-01-26T16:50:40.605Z,21.37
2024-01-26T16:53:07.870Z,24.30
2024-01-26T16:55:34.843Z,16.23
2024-01-26T16:58:01.864Z,19.07
2024-01-26T17:00:28.785Z,15.57
2024-01-26T17:02:58.769Z,20.87
2024-01-26T17:05:26.006Z,17.77
2024-01-26T17:07:52.903Z,23.43
2024-01-26T17:10:20.832Z,19.00
2024-01-26T17:12:48.967Z,22.80
2024-01-26T17:15:15.803Z,24.37
2024-01-26T17:17:42.983Z,23.57
2024-01-26T17:20:10.146Z,22.23
2024-01-26T17:22:40.051Z,19.67
2024-01-26T17:25:07.542Z,25.30
2024-01-26T17:27:34.782Z,23.07
2024-01-26T17:30:02.862Z,25.33
2024-01-26T17:32:31.112Z,30.87
2024-01-26T17:34:58.494Z,28.77
2024-01-26T17:37:25.533Z,28.27
2024-01-26T17:39:59.844Z,24.23
2024-01-26T17:42:31.829Z,26.93
2024-01-26T17:44:59.111Z,27.47
2024-01-26T17:47:26.160Z,26.50
2024-01-26T17:49:53.277Z,27.77
2024-01-26T17:52:20.423Z,22.97
2024-01-26T17:54:47.398Z,24.27
2024-01-26T17:57:14.319Z,23.47
2024-01-26T17:59:44.938Z,28.63
2024-01-26T18:02:12.116Z,26.73
2024-01-26T18:04:39.427Z,26.50
2024-01-26T18:07:06.340Z,22.53
2024-01-26T18:09:33.647Z,26.17
2024-01-26T18:12:00.686Z,27.00
2024-01-26T18:14:27.529Z,25.20
2024-01-26T18:16:54.409Z,21.87
2024-01-26T18:19:21.472Z,19.87
2024-01-26T18:21:48.510Z,23.30
2024-01-26T18:24:15.386Z,19.43
2024-01-26T18:26:42.903Z,15.50
2024-01-26T18:29:09.859Z,19.47
2024-01-26T18:31:36.796Z,22.73
2024-01-26T18:34:05.694Z,22.97
2024-01-26T18:36:33.387Z,21.23
2024-01-26T18:39:00.363Z,21.03
2024-01-26T18:41:28.070Z,20.47
2024-01-26T18:43:57.561Z,17.57
2024-01-26T18:46:25.175Z,24.23
2024-01-26T18:48:52.457Z,18.90
2024-01-26T18:51:19.522Z,18.00
2024-01-26T18:53:46.444Z,22.17
2024-01-26T18:56:13.507Z,20.87
2024-01-26T18:58:41.508Z,23.50
2024-01-26T19:01:09.778Z,17.70
2024-01-26T19:03:39.750Z,19.63
2024-01-26T19:06:07.036Z,23.27
2024-01-26T19:08:33.916Z,27.17
2024-01-26T19:11:00.878Z,26.83
2024-01-26T19:13:27.730Z,18.07
2024-01-26T19:15:55.396Z,24.50
2024-01-26T19:18:26.047Z,22.77
2024-01-26T19:20:54.244Z,22.50
2024-01-26T19:23:21.341Z,21.90
2024-01-26T19:25:48.762Z,22.13
2024-01-26T19:28:15.733Z,19.10
2024-01-26T19:30:42.680Z,17.03
2024-01-26T19:33:09.841Z,17.67
2024-01-26T19:35:37.637Z,22.40
2024-01-26T19:38:04.977Z,21.90
2024-01-26T19:40:32.055Z,22.20
2024-01-26T19:43:00.394Z,20.10
2024-01-26T19:45:27.608Z,20.00
2024-01-26T19:47:55.148Z,21.23
2024-01-26T19:50:22.063Z,24.80
2024-01-26T19:52:50.071Z,20.37
2024-01-26T19:55:17.255Z,26.47
2024-01-26T19:57:44.115Z,21.60
2024-01-26T20:00:11.458Z,21.53
2024-01-26T20:02:38.474Z,21.33
2024-01-26T20:05:06.039Z,20.63
2024-01-26T20:07:33.554Z,19.20
2024-01-26T20:10:00.656Z,16.40
2024-01-26T20:12:28.245Z,19.43
2024-01-26T20:14:56.098Z,20.20
2024-01-26T20:17:26.152Z,15.43
2024-01-26T20:19:53.177Z,18.27
2024-01-26T20:22:20.165Z,17.10
2024-01-26T20:24:47.155Z,18.77
2024-01-26T20:27:14.397Z,16.43
2024-01-26T20:29:41.397Z,19.53
2024-01-26T20:32:08.696Z,15.07
2024-01-26T20:34:35.881Z,18.93
2024-01-26T20:37:04.050Z,12.70
2024-01-26T20:39:30.973Z,16.37
2024-01-26T20:42:00.937Z,16.43
2024-01-26T20:44:29.933Z,12.87
2024-01-26T20:46:56.914Z,17.07
2024-01-26T20:49:24.100Z,18.67
2024-01-26T20:51:51.802Z,23.80
2024-01-26T20:54:20.563Z,21.73
2024-01-26T20:56:47.826Z,27.13
2024-01-26T20:59:15.200Z,16.50
2024-01-26T21:01:42.413Z,10.17
2024-01-26T21:04:09.437Z,5.60
2024-01-26T21:06:36.639Z,6.53
2024-01-26T21:09:03.724Z,8.47
2024-01-26T21:11:30.741Z,5.40
2024-01-26T21:13:58.257Z,7.03
2024-01-26T21:16:26.903Z,8.30
2024-01-26T21:18:54.227Z,4.63
2024-01-26T21:21:21.365Z,6.00
2024-01-26T21:23:48.256Z,6.77
2024-01-26T21:26:15.212Z,5.13
2024-01-26T21:28:42.054Z,8.83
2024-01-26T21:31:09.256Z,5.77
2024-01-26T21:33:36.242Z,3.10
2024-01-26T21:36:03.778Z,5.30
2024-01-26T21:38:30.970Z,6.00
2024-01-26T21:40:58.263Z,6.10
2024-01-26T21:43:25.335Z,6.87
2024-01-26T21:45:53.800Z,2.93
2024-01-26T21:48:24.845Z,5.57
2024-01-26T21:50:52.570Z,3.47
2024-01-26T21:53:21.329Z,3.60
2024-01-26T21:55:48.106Z,2.67
2024-01-26T21:58:15.144Z,4.43
2024-01-26T22:00:42.172Z,3.47
2024-01-26T22:03:09.119Z,3.70
2024-01-26T22:05:39.102Z,5.13
2024-01-26T22:08:08.491Z,3.33
2024-01-26T22:10:35.427Z,4.40
2024-01-26T22:13:03.450Z,2.27
2024-01-26T22:15:30.471Z,3.27
2024-01-26T22:17:57.554Z,3.10
2024-01-26T22:20:24.932Z,1.80
2024-01-26T22:22:51.775Z,1.80
2024-01-26T22:25:18.594Z,1.67
2024-01-26T22:27:45.614Z,4.37
2024-01-26T22:30:12.782Z,2.50
2024-01-26T22:32:39.700Z,2.10
2024-01-26T22:35:06.727Z,1.80
2024-01-26T22:37:33.884Z,2.10
2024-01-26T22:40:00.809Z,4.60
2024-01-26T22:42:30.526Z,5.87
2024-01-26T22:44:57.575Z,2.77
2024-01-26T22:47:24.407Z,4.07
2024-01-26T22:49:52.173Z,4.97
2024-01-26T22:54:46.216Z,6.67
2024-01-26T22:57:13.216Z,3.23
2024-01-26T22:59:40.378Z,3.53
2024-01-26T23:02:07.243Z,2.50
2024-01-26T23:04:34.137Z,3.23
2024-01-26T23:07:01.040Z,4.03
2024-01-26T23:09:28.121Z,4.60
2024-01-26T23:11:54.970Z,5.47
2024-01-26T23:14:22.266Z,6.07
2024-01-26T23:16:49.090Z,9.83
2024-01-26T23:19:19.792Z,4.23
2024-01-26T23:21:46.852Z,5.13
2024-01-26T23:24:13.941Z,6.00
2024-01-26T23:26:40.810Z,5.13
2024-01-26T23:29:07.685Z,4.73
2024-01-26T23:31:34.492Z,5.03
2024-01-26T23:34:01.677Z,9.67
2024-01-26T23:36:29.384Z,11.50
2024-01-26T23:38:56.676Z,4.93
2024-01-26T23:41:23.881Z,9.00
2024-01-26T23:43:50.806Z,8.87
2024-01-26T23:46:17.975Z,12.90
2024-01-26T23:48:45.031Z,5.10
2024-01-26T23:51:12.263Z,5.97
2024-01-26T23:53:39.603Z,6.50
2024-01-26T23:56:06.545Z,6.93
2024-01-26T23:58:33.344Z,8.10
